Las Vegas, Nevada
Traffic Map
Current Weather Conditions
Las Vegas, Nevada
Clear
Clear
77°
Feels Like: 77°
Wind Chill: 77° Ceiling: Unl
Heat Index: 77° Visibility: 10mi
Dew Point: Wind: 7mph
Humidity: 7% Direction: 210° (SSW)
Pressure: 29.91in Gusts: 0mph
Raw Report DataKLAS 010356Z 21006KT 10SM CLR 25/M13 A2991 RMK AO2 SLP111 T02501128
Traffic Incident Summary
Active as of:
Severity:
Category:
InformationThere was an issue retrieving the traffic information for this location. Please try a different location or try again shortly.
Advertisements
Track Severe Weather on mobile